sensor_id;sensor_type;location;lat;lon;timestamp;temperature;humidity
27492;DHT22;14927;51.210;6.838;2022-11-15T00:00:08;14.50;65.00
27492;DHT22;14927;51.210;6.838;2022-11-15T00:02:54;14.60;65.20
27492;DHT22;14927;51.210;6.838;2022-11-15T00:05:38;14.50;65.20
27492;DHT22;14927;51.210;6.838;2022-11-15T00:08:23;14.60;65.30
27492;DHT22;14927;51.210;6.838;2022-11-15T00:11:10;14.60;65.30
27492;DHT22;14927;51.210;6.838;2022-11-15T00:13:56;14.60;65.50
27492;DHT22;14927;51.210;6.838;2022-11-15T00:16:41;14.60;65.50
27492;DHT22;14927;51.210;6.838;2022-11-15T00:19:26;14.70;65.60
27492;DHT22;14927;51.210;6.838;2022-11-15T00:22:11;14.70;65.70
27492;DHT22;14927;51.210;6.838;2022-11-15T00:24:55;14.70;65.80
27492;DHT22;14927;51.210;6.838;2022-11-15T00:27:40;14.70;65.90
27492;DHT22;14927;51.210;6.838;2022-11-15T00:30:26;14.80;65.90
27492;DHT22;14927;51.210;6.838;2022-11-15T00:33:10;14.80;66.10
27492;DHT22;14927;51.210;6.838;2022-11-15T00:36:06;14.80;66.10
27492;DHT22;14927;51.210;6.838;2022-11-15T00:38:53;14.90;66.50
27492;DHT22;14927;51.210;6.838;2022-11-15T00:41:37;14.90;66.20
27492;DHT22;14927;51.210;6.838;2022-11-15T00:44:23;14.80;66.20
27492;DHT22;14927;51.210;6.838;2022-11-15T00:47:07;14.90;66.40
27492;DHT22;14927;51.210;6.838;2022-11-15T00:49:52;14.90;66.40
27492;DHT22;14927;51.210;6.838;2022-11-15T00:52:37;14.90;66.50
27492;DHT22;14927;51.210;6.838;2022-11-15T00:55:21;14.90;66.50
27492;DHT22;14927;51.210;6.838;2022-11-15T00:58:06;15.00;66.60
27492;DHT22;14927;51.210;6.838;2022-11-15T01:00:50;15.00;66.70
27492;DHT22;14927;51.210;6.838;2022-11-15T01:03:36;15.00;66.70
27492;DHT22;14927;51.210;6.838;2022-11-15T01:06:21;15.10;66.80
27492;DHT22;14927;51.210;6.838;2022-11-15T01:09:06;15.00;66.80
27492;DHT22;14927;51.210;6.838;2022-11-15T01:11:50;15.10;66.80
27492;DHT22;14927;51.210;6.838;2022-11-15T01:14:36;15.10;66.80
27492;DHT22;14927;51.210;6.838;2022-11-15T01:17:20;15.10;66.80
27492;DHT22;14927;51.210;6.838;2022-11-15T01:20:05;15.20;66.90
27492;DHT22;14927;51.210;6.838;2022-11-15T01:22:50;15.10;66.90
27492;DHT22;14927;51.210;6.838;2022-11-15T01:25:34;15.20;67.00
27492;DHT22;14927;51.210;6.838;2022-11-15T01:28:19;15.20;67.00
27492;DHT22;14927;51.210;6.838;2022-11-15T01:31:06;15.20;67.70
27492;DHT22;14927;51.210;6.838;2022-11-15T01:33:53;15.20;67.00
27492;DHT22;14927;51.210;6.838;2022-11-15T01:36:37;15.20;66.90
27492;DHT22;14927;51.210;6.838;2022-11-15T01:39:22;15.30;67.00
27492;DHT22;14927;51.210;6.838;2022-11-15T01:42:12;15.30;67.00
27492;DHT22;14927;51.210;6.838;2022-11-15T01:44:57;15.30;67.20
27492;DHT22;14927;51.210;6.838;2022-11-15T01:47:46;15.40;67.00
27492;DHT22;14927;51.210;6.838;2022-11-15T01:50:35;15.30;67.00
27492;DHT22;14927;51.210;6.838;2022-11-15T01:53:21;15.30;66.90
27492;DHT22;14927;51.210;6.838;2022-11-15T01:56:11;15.40;67.00
27492;DHT22;14927;51.210;6.838;2022-11-15T01:59:01;15.40;67.10
27492;DHT22;14927;51.210;6.838;2022-11-15T02:01:47;15.40;67.00
27492;DHT22;14927;51.210;6.838;2022-11-15T02:04:36;15.50;67.10
27492;DHT22;14927;51.210;6.838;2022-11-15T02:07:23;15.40;67.10
27492;DHT22;14927;51.210;6.838;2022-11-15T02:10:16;15.40;67.10
27492;DHT22;14927;51.210;6.838;2022-11-15T02:13:02;15.40;67.20
27492;DHT22;14927;51.210;6.838;2022-11-15T02:16:09;15.40;67.20
27492;DHT22;14927;51.210;6.838;2022-11-15T02:26:03;15.50;67.40
27492;DHT22;14927;51.210;6.838;2022-11-15T02:29:08;15.50;67.10
27492;DHT22;14927;51.210;6.838;2022-11-15T02:32:07;15.50;67.00
27492;DHT22;14927;51.210;6.838;2022-11-15T02:41:45;15.60;67.40
27492;DHT22;14927;51.210;6.838;2022-11-15T02:44:38;15.60;67.70
27492;DHT22;14927;51.210;6.838;2022-11-15T02:47:27;15.60;68.10
27492;DHT22;14927;51.210;6.838;2022-11-15T02:50:18;15.60;67.40
27492;DHT22;14927;51.210;6.838;2022-11-15T02:53:04;15.60;67.50
27492;DHT22;14927;51.210;6.838;2022-11-15T02:55:50;15.60;67.40
27492;DHT22;14927;51.210;6.838;2022-11-15T03:05:41;15.70;67.80
27492;DHT22;14927;51.210;6.838;2022-11-15T03:08:53;15.70;67.70
27492;DHT22;14927;51.210;6.838;2022-11-15T03:11:58;15.70;67.60
27492;DHT22;14927;51.210;6.838;2022-11-15T03:15:04;15.70;67.50
27492;DHT22;14927;51.210;6.838;2022-11-15T03:17:55;15.70;67.80
27492;DHT22;14927;51.210;6.838;2022-11-15T03:20:47;15.70;67.50
27492;DHT22;14927;51.210;6.838;2022-11-15T03:23:34;15.80;67.60
27492;DHT22;14927;51.210;6.838;2022-11-15T03:26:23;15.80;67.70
27492;DHT22;14927;51.210;6.838;2022-11-15T03:29:23;15.80;67.80
27492;DHT22;14927;51.210;6.838;2022-11-15T03:32:14;15.80;68.00
27492;DHT22;14927;51.210;6.838;2022-11-15T03:35:02;15.80;67.70
27492;DHT22;14927;51.210;6.838;2022-11-15T03:37:59;15.90;68.10
27492;DHT22;14927;51.210;6.838;2022-11-15T03:41:04;15.90;67.20
27492;DHT22;14927;51.210;6.838;2022-11-15T03:43:59;15.90;67.60
27492;DHT22;14927;51.210;6.838;2022-11-15T03:50:17;15.90;67.70
27492;DHT22;14927;51.210;6.838;2022-11-15T03:53:03;15.90;67.40
27492;DHT22;14927;51.210;6.838;2022-11-15T03:55:47;15.90;67.40
27492;DHT22;14927;51.210;6.838;2022-11-15T03:58:32;15.90;67.40
27492;DHT22;14927;51.210;6.838;2022-11-15T04:01:16;15.90;67.40
27492;DHT22;14927;51.210;6.838;2022-11-15T04:04:01;16.00;67.50
27492;DHT22;14927;51.210;6.838;2022-11-15T04:06:46;16.10;67.50
27492;DHT22;14927;51.210;6.838;2022-11-15T04:09:30;16.00;67.40
27492;DHT22;14927;51.210;6.838;2022-11-15T04:12:15;16.00;67.40
27492;DHT22;14927;51.210;6.838;2022-11-15T04:15:20;16.00;67.50
27492;DHT22;14927;51.210;6.838;2022-11-15T04:18:06;16.00;68.30
27492;DHT22;14927;51.210;6.838;2022-11-15T04:20:50;16.00;67.40
27492;DHT22;14927;51.210;6.838;2022-11-15T04:23:53;16.00;67.40
27492;DHT22;14927;51.210;6.838;2022-11-15T04:26:50;16.00;67.40
27492;DHT22;14927;51.210;6.838;2022-11-15T04:29:34;16.00;67.40
27492;DHT22;14927;51.210;6.838;2022-11-15T04:32:19;16.10;67.60
27492;DHT22;14927;51.210;6.838;2022-11-15T04:35:04;16.00;67.50
27492;DHT22;14927;51.210;6.838;2022-11-15T04:37:49;16.00;68.30
27492;DHT22;14927;51.210;6.838;2022-11-15T04:40:34;16.10;67.70
27492;DHT22;14927;51.210;6.838;2022-11-15T04:43:19;16.10;67.80
27492;DHT22;14927;51.210;6.838;2022-11-15T04:46:04;16.10;68.00
27492;DHT22;14927;51.210;6.838;2022-11-15T04:48:48;16.10;68.20
27492;DHT22;14927;51.210;6.838;2022-11-15T04:51:33;16.10;68.30
27492;DHT22;14927;51.210;6.838;2022-11-15T04:54:18;16.10;68.40
27492;DHT22;14927;51.210;6.838;2022-11-15T04:57:02;16.00;68.50
27492;DHT22;14927;51.210;6.838;2022-11-15T04:59:47;16.10;68.60
27492;DHT22;14927;51.210;6.838;2022-11-15T05:02:32;16.10;68.80
27492;DHT22;14927;51.210;6.838;2022-11-15T05:05:54;16.00;68.80
27492;DHT22;14927;51.210;6.838;2022-11-15T05:08:39;16.00;69.60
27492;DHT22;14927;51.210;6.838;2022-11-15T05:11:24;16.10;69.00
27492;DHT22;14927;51.210;6.838;2022-11-15T05:14:08;16.00;69.00
27492;DHT22;14927;51.210;6.838;2022-11-15T05:16:53;16.20;69.10
27492;DHT22;14927;51.210;6.838;2022-11-15T05:19:37;16.10;69.10
27492;DHT22;14927;51.210;6.838;2022-11-15T05:22:22;16.10;69.10
27492;DHT22;14927;51.210;6.838;2022-11-15T05:25:07;16.10;69.00
27492;DHT22;14927;51.210;6.838;2022-11-15T05:27:51;16.10;69.00
27492;DHT22;14927;51.210;6.838;2022-11-15T05:30:36;16.10;68.90
27492;DHT22;14927;51.210;6.838;2022-11-15T05:33:21;16.10;68.90
27492;DHT22;14927;51.210;6.838;2022-11-15T05:36:34;16.10;68.80
27492;DHT22;14927;51.210;6.838;2022-11-15T05:39:21;16.00;68.90
27492;DHT22;14927;51.210;6.838;2022-11-15T05:42:09;16.10;68.60
27492;DHT22;14927;51.210;6.838;2022-11-15T05:44:56;16.10;68.60
27492;DHT22;14927;51.210;6.838;2022-11-15T05:47:41;16.10;68.60
27492;DHT22;14927;51.210;6.838;2022-11-15T05:50:26;16.10;68.50
27492;DHT22;14927;51.210;6.838;2022-11-15T05:53:12;16.10;68.50
27492;DHT22;14927;51.210;6.838;2022-11-15T05:55:58;16.10;68.50
27492;DHT22;14927;51.210;6.838;2022-11-15T05:58:43;16.10;68.50
27492;DHT22;14927;51.210;6.838;2022-11-15T06:01:28;16.10;68.50
27492;DHT22;14927;51.210;6.838;2022-11-15T06:04:12;16.10;68.50
27492;DHT22;14927;51.210;6.838;2022-11-15T06:06:58;16.10;68.50
27492;DHT22;14927;51.210;6.838;2022-11-15T06:09:43;16.10;68.50
27492;DHT22;14927;51.210;6.838;2022-11-15T06:12:28;16.10;68.50
27492;DHT22;14927;51.210;6.838;2022-11-15T06:15:12;16.10;68.50
27492;DHT22;14927;51.210;6.838;2022-11-15T06:17:57;16.10;68.50
27492;DHT22;14927;51.210;6.838;2022-11-15T06:20:42;16.10;68.50
27492;DHT22;14927;51.210;6.838;2022-11-15T06:23:27;16.10;68.50
27492;DHT22;14927;51.210;6.838;2022-11-15T06:26:12;16.10;68.40
27492;DHT22;14927;51.210;6.838;2022-11-15T06:28:56;16.20;68.40
27492;DHT22;14927;51.210;6.838;2022-11-15T06:31:41;16.20;68.40
27492;DHT22;14927;51.210;6.838;2022-11-15T06:34:25;16.10;68.40
27492;DHT22;14927;51.210;6.838;2022-11-15T06:37:10;16.20;68.40
27492;DHT22;14927;51.210;6.838;2022-11-15T06:39:55;16.20;68.40
27492;DHT22;14927;51.210;6.838;2022-11-15T06:42:39;16.20;68.30
27492;DHT22;14927;51.210;6.838;2022-11-15T06:45:24;16.20;68.30
27492;DHT22;14927;51.210;6.838;2022-11-15T06:48:08;16.20;68.30
27492;DHT22;14927;51.210;6.838;2022-11-15T06:50:58;16.20;68.20
27492;DHT22;14927;51.210;6.838;2022-11-15T06:53:43;16.20;68.20
27492;DHT22;14927;51.210;6.838;2022-11-15T06:56:28;16.20;68.10
27492;DHT22;14927;51.210;6.838;2022-11-15T06:59:12;16.20;68.00
27492;DHT22;14927;51.210;6.838;2022-11-15T07:01:57;16.20;68.10
27492;DHT22;14927;51.210;6.838;2022-11-15T07:04:41;16.20;68.00
27492;DHT22;14927;51.210;6.838;2022-11-15T07:07:26;16.20;68.00
27492;DHT22;14927;51.210;6.838;2022-11-15T07:10:11;16.20;67.90
27492;DHT22;14927;51.210;6.838;2022-11-15T07:12:58;16.20;67.80
27492;DHT22;14927;51.210;6.838;2022-11-15T07:15:42;16.20;67.70
27492;DHT22;14927;51.210;6.838;2022-11-15T07:18:27;16.10;67.50
27492;DHT22;14927;51.210;6.838;2022-11-15T07:21:12;16.10;67.30
27492;DHT22;14927;51.210;6.838;2022-11-15T07:23:56;16.10;67.20
27492;DHT22;14927;51.210;6.838;2022-11-15T07:26:41;16.10;67.00
27492;DHT22;14927;51.210;6.838;2022-11-15T07:29:26;16.20;66.90
27492;DHT22;14927;51.210;6.838;2022-11-15T07:32:10;16.10;66.80
27492;DHT22;14927;51.210;6.838;2022-11-15T07:34:55;16.10;66.80
27492;DHT22;14927;51.210;6.838;2022-11-15T07:37:39;16.10;66.80
27492;DHT22;14927;51.210;6.838;2022-11-15T07:40:26;16.10;66.70
27492;DHT22;14927;51.210;6.838;2022-11-15T07:43:14;16.10;66.50
27492;DHT22;14927;51.210;6.838;2022-11-15T07:46:03;16.10;67.20
27492;DHT22;14927;51.210;6.838;2022-11-15T07:48:53;16.20;66.30
27492;DHT22;14927;51.210;6.838;2022-11-15T07:51:37;16.10;66.10
27492;DHT22;14927;51.210;6.838;2022-11-15T07:54:22;16.20;66.10
27492;DHT22;14927;51.210;6.838;2022-11-15T07:57:08;16.20;66.00
27492;DHT22;14927;51.210;6.838;2022-11-15T07:59:53;16.20;65.90
27492;DHT22;14927;51.210;6.838;2022-11-15T08:02:38;16.20;65.80
27492;DHT22;14927;51.210;6.838;2022-11-15T08:05:23;16.20;65.70
27492;DHT22;14927;51.210;6.838;2022-11-15T08:08:09;16.30;65.50
27492;DHT22;14927;51.210;6.838;2022-11-15T08:10:58;16.30;65.30
27492;DHT22;14927;51.210;6.838;2022-11-15T08:13:42;16.30;65.00
27492;DHT22;14927;51.210;6.838;2022-11-15T08:16:27;16.30;64.90
27492;DHT22;14927;51.210;6.838;2022-11-15T08:19:12;16.30;64.70
27492;DHT22;14927;51.210;6.838;2022-11-15T08:21:56;16.30;64.60
27492;DHT22;14927;51.210;6.838;2022-11-15T08:24:41;16.30;64.50
27492;DHT22;14927;51.210;6.838;2022-11-15T08:27:25;16.30;64.40
27492;DHT22;14927;51.210;6.838;2022-11-15T08:30:10;16.30;64.30
27492;DHT22;14927;51.210;6.838;2022-11-15T08:32:57;16.30;64.30
27492;DHT22;14927;51.210;6.838;2022-11-15T08:35:42;16.30;64.20
27492;DHT22;14927;51.210;6.838;2022-11-15T08:38:27;16.30;64.00
27492;DHT22;14927;51.210;6.838;2022-11-15T08:41:31;16.40;64.10
27492;DHT22;14927;51.210;6.838;2022-11-15T08:44:18;16.40;64.00
27492;DHT22;14927;51.210;6.838;2022-11-15T08:47:03;16.40;64.20
27492;DHT22;14927;51.210;6.838;2022-11-15T08:49:48;16.40;64.00
27492;DHT22;14927;51.210;6.838;2022-11-15T08:52:33;16.40;63.80
27492;DHT22;14927;51.210;6.838;2022-11-15T08:55:17;16.40;63.80
27492;DHT22;14927;51.210;6.838;2022-11-15T08:58:01;16.50;63.30
27492;DHT22;14927;51.210;6.838;2022-11-15T09:00:46;16.50;63.10
27492;DHT22;14927;51.210;6.838;2022-11-15T09:03:31;16.50;62.80
27492;DHT22;14927;51.210;6.838;2022-11-15T09:06:15;16.50;62.50
27492;DHT22;14927;51.210;6.838;2022-11-15T09:09:00;16.60;62.30
27492;DHT22;14927;51.210;6.838;2022-11-15T09:11:45;16.50;61.90
27492;DHT22;14927;51.210;6.838;2022-11-15T09:14:30;16.50;61.90
27492;DHT22;14927;51.210;6.838;2022-11-15T09:17:15;16.50;61.80
27492;DHT22;14927;51.210;6.838;2022-11-15T09:19:59;16.50;61.60
27492;DHT22;14927;51.210;6.838;2022-11-15T09:22:44;16.50;61.50
27492;DHT22;14927;51.210;6.838;2022-11-15T09:25:29;16.50;61.20
27492;DHT22;14927;51.210;6.838;2022-11-15T09:28:14;16.60;61.00
27492;DHT22;14927;51.210;6.838;2022-11-15T09:31:03;16.50;60.80
27492;DHT22;14927;51.210;6.838;2022-11-15T09:33:49;16.50;60.70
27492;DHT22;14927;51.210;6.838;2022-11-15T09:36:34;16.50;60.60
27492;DHT22;14927;51.210;6.838;2022-11-15T09:39:19;16.60;60.60
27492;DHT22;14927;51.210;6.838;2022-11-15T09:51:44;16.60;59.60
27492;DHT22;14927;51.210;6.838;2022-11-15T09:54:42;16.70;58.70
27492;DHT22;14927;51.210;6.838;2022-11-15T09:57:54;16.70;58.30
27492;DHT22;14927;51.210;6.838;2022-11-15T10:00:47;16.70;58.70
27492;DHT22;14927;51.210;6.838;2022-11-15T10:03:38;16.70;58.80
27492;DHT22;14927;51.210;6.838;2022-11-15T10:06:26;16.70;58.60
27492;DHT22;14927;51.210;6.838;2022-11-15T10:09:24;16.70;58.50
27492;DHT22;14927;51.210;6.838;2022-11-15T10:12:13;16.70;57.80
27492;DHT22;14927;51.210;6.838;2022-11-15T10:15:05;16.80;58.00
27492;DHT22;14927;51.210;6.838;2022-11-15T10:18:00;16.80;57.60
27492;DHT22;14927;51.210;6.838;2022-11-15T10:20:59;16.80;57.90
27492;DHT22;14927;51.210;6.838;2022-11-15T10:23:44;16.80;57.00
27492;DHT22;14927;51.210;6.838;2022-11-15T10:26:31;16.90;57.30
27492;DHT22;14927;51.210;6.838;2022-11-15T10:29:23;16.90;57.00
27492;DHT22;14927;51.210;6.838;2022-11-15T10:32:14;16.90;57.10
27492;DHT22;14927;51.210;6.838;2022-11-15T10:35:20;16.90;56.60
27492;DHT22;14927;51.210;6.838;2022-11-15T10:38:11;17.00;55.90
27492;DHT22;14927;51.210;6.838;2022-11-15T10:41:06;17.00;56.40
27492;DHT22;14927;51.210;6.838;2022-11-15T10:44:22;17.10;55.50
27492;DHT22;14927;51.210;6.838;2022-11-15T10:47:24;17.10;55.30
27492;DHT22;14927;51.210;6.838;2022-11-15T10:50:31;17.20;55.10
27492;DHT22;14927;51.210;6.838;2022-11-15T10:53:27;17.20;54.70
27492;DHT22;14927;51.210;6.838;2022-11-15T10:56:15;17.20;55.20
27492;DHT22;14927;51.210;6.838;2022-11-15T10:59:04;17.30;55.60
27492;DHT22;14927;51.210;6.838;2022-11-15T11:01:49;17.30;54.80
27492;DHT22;14927;51.210;6.838;2022-11-15T11:04:49;17.30;54.70
27492;DHT22;14927;51.210;6.838;2022-11-15T11:07:35;17.30;53.70
27492;DHT22;14927;51.210;6.838;2022-11-15T11:10:21;17.40;54.50
27492;DHT22;14927;51.210;6.838;2022-11-15T11:13:35;17.40;54.30
27492;DHT22;14927;51.210;6.838;2022-11-15T11:16:33;17.50;53.30
27492;DHT22;14927;51.210;6.838;2022-11-15T11:20:00;17.60;53.10
27492;DHT22;14927;51.210;6.838;2022-11-15T11:30:24;18.00;51.00
27492;DHT22;14927;51.210;6.838;2022-11-15T11:49:02;19.10;47.80
27492;DHT22;14927;51.210;6.838;2022-11-15T11:52:02;19.20;47.10
27492;DHT22;14927;51.210;6.838;2022-11-15T11:55:16;19.30;46.90
27492;DHT22;14927;51.210;6.838;2022-11-15T12:01:24;19.50;46.20
27492;DHT22;14927;51.210;6.838;2022-11-15T12:04:20;19.60;45.30
27492;DHT22;14927;51.210;6.838;2022-11-15T12:07:19;19.80;45.40
27492;DHT22;14927;51.210;6.838;2022-11-15T12:13:15;19.90;45.80
27492;DHT22;14927;51.210;6.838;2022-11-15T12:16:21;20.10;44.80
27492;DHT22;14927;51.210;6.838;2022-11-15T12:19:08;20.20;45.00
27492;DHT22;14927;51.210;6.838;2022-11-15T12:25:03;20.50;43.80
27492;DHT22;14927;51.210;6.838;2022-11-15T12:28:04;20.60;44.60
27492;DHT22;14927;51.210;6.838;2022-11-15T12:31:24;20.70;43.50
27492;DHT22;14927;51.210;6.838;2022-11-15T12:46:03;21.10;43.60
27492;DHT22;14927;51.210;6.838;2022-11-15T12:48:52;21.20;43.50
27492;DHT22;14927;51.210;6.838;2022-11-15T12:57:29;21.50;43.20
27492;DHT22;14927;51.210;6.838;2022-11-15T13:03:23;21.90;42.40
27492;DHT22;14927;51.210;6.838;2022-11-15T13:06:33;22.10;41.80
27492;DHT22;14927;51.210;6.838;2022-11-15T13:17:56;23.00;41.60
27492;DHT22;14927;51.210;6.838;2022-11-15T13:20:45;23.20;40.90
27492;DHT22;14927;51.210;6.838;2022-11-15T13:23:29;23.30;39.90
27492;DHT22;14927;51.210;6.838;2022-11-15T13:26:15;23.40;39.90
27492;DHT22;14927;51.210;6.838;2022-11-15T13:29:12;23.50;39.30
27492;DHT22;14927;51.210;6.838;2022-11-15T13:31:59;23.40;39.20
27492;DHT22;14927;51.210;6.838;2022-11-15T13:34:46;23.40;39.00
27492;DHT22;14927;51.210;6.838;2022-11-15T13:37:31;23.30;38.70
27492;DHT22;14927;51.210;6.838;2022-11-15T13:40:35;23.20;38.90
27492;DHT22;14927;51.210;6.838;2022-11-15T13:49:08;22.80;39.10
27492;DHT22;14927;51.210;6.838;2022-11-15T13:51:55;22.60;39.30
27492;DHT22;14927;51.210;6.838;2022-11-15T13:57:57;22.30;39.60
27492;DHT22;14927;51.210;6.838;2022-11-15T14:00:45;22.20;40.00
27492;DHT22;14927;51.210;6.838;2022-11-15T14:03:33;22.10;40.40
27492;DHT22;14927;51.210;6.838;2022-11-15T14:06:21;22.00;40.70
27492;DHT22;14927;51.210;6.838;2022-11-15T14:11:56;21.80;41.20
27492;DHT22;14927;51.210;6.838;2022-11-15T14:14:46;21.70;41.70
27492;DHT22;14927;51.210;6.838;2022-11-15T14:20:39;21.50;42.30
27492;DHT22;14927;51.210;6.838;2022-11-15T14:23:24;21.40;42.40
27492;DHT22;14927;51.210;6.838;2022-11-15T14:26:30;21.30;42.90
27492;DHT22;14927;51.210;6.838;2022-11-15T14:29:28;21.20;43.10
27492;DHT22;14927;51.210;6.838;2022-11-15T14:32:15;21.20;43.30
27492;DHT22;14927;51.210;6.838;2022-11-15T14:35:03;21.00;43.60
27492;DHT22;14927;51.210;6.838;2022-11-15T14:37:47;21.00;43.90
27492;DHT22;14927;51.210;6.838;2022-11-15T14:40:32;20.90;44.10
27492;DHT22;14927;51.210;6.838;2022-11-15T14:43:17;20.90;44.30
27492;DHT22;14927;51.210;6.838;2022-11-15T14:46:01;20.80;44.40
27492;DHT22;14927;51.210;6.838;2022-11-15T14:48:46;20.70;44.60
27492;DHT22;14927;51.210;6.838;2022-11-15T14:51:30;20.70;44.90
27492;DHT22;14927;51.210;6.838;2022-11-15T14:54:19;20.60;45.00
27492;DHT22;14927;51.210;6.838;2022-11-15T14:57:03;20.50;45.20
27492;DHT22;14927;51.210;6.838;2022-11-15T14:59:48;20.50;46.00
27492;DHT22;14927;51.210;6.838;2022-11-15T15:02:32;20.40;45.50
27492;DHT22;14927;51.210;6.838;2022-11-15T15:05:19;20.40;45.60
27492;DHT22;14927;51.210;6.838;2022-11-15T15:08:05;20.30;45.80
27492;DHT22;14927;51.210;6.838;2022-11-15T15:10:50;20.30;45.90
27492;DHT22;14927;51.210;6.838;2022-11-15T15:13:36;20.20;46.00
27492;DHT22;14927;51.210;6.838;2022-11-15T15:16:20;20.10;46.20
27492;DHT22;14927;51.210;6.838;2022-11-15T15:19:05;20.10;46.40
27492;DHT22;14927;51.210;6.838;2022-11-15T15:21:50;20.00;46.50
27492;DHT22;14927;51.210;6.838;2022-11-15T15:24:35;20.00;46.60
27492;DHT22;14927;51.210;6.838;2022-11-15T15:27:19;20.00;46.80
27492;DHT22;14927;51.210;6.838;2022-11-15T15:30:04;19.90;46.80
27492;DHT22;14927;51.210;6.838;2022-11-15T15:32:49;19.90;47.10
27492;DHT22;14927;51.210;6.838;2022-11-15T15:35:34;19.80;47.20
27492;DHT22;14927;51.210;6.838;2022-11-15T15:38:19;19.80;47.30
27492;DHT22;14927;51.210;6.838;2022-11-15T15:41:04;19.70;47.40
27492;DHT22;14927;51.210;6.838;2022-11-15T15:43:48;19.70;47.60
27492;DHT22;14927;51.210;6.838;2022-11-15T15:46:39;19.60;47.70
27492;DHT22;14927;51.210;6.838;2022-11-15T15:49:24;19.60;48.50
27492;DHT22;14927;51.210;6.838;2022-11-15T15:52:08;19.60;47.90
27492;DHT22;14927;51.210;6.838;2022-11-15T15:54:56;19.50;48.00
27492;DHT22;14927;51.210;6.838;2022-11-15T15:57:41;19.50;48.20
27492;DHT22;14927;51.210;6.838;2022-11-15T16:00:26;19.50;48.30
27492;DHT22;14927;51.210;6.838;2022-11-15T16:03:10;19.40;48.30
27492;DHT22;14927;51.210;6.838;2022-11-15T16:05:55;19.40;48.40
27492;DHT22;14927;51.210;6.838;2022-11-15T16:08:39;19.30;48.50
27492;DHT22;14927;51.210;6.838;2022-11-15T16:11:24;19.30;48.70
27492;DHT22;14927;51.210;6.838;2022-11-15T16:14:09;19.30;48.80
27492;DHT22;14927;51.210;6.838;2022-11-15T16:16:53;19.30;48.90
27492;DHT22;14927;51.210;6.838;2022-11-15T16:19:38;19.30;49.10
27492;DHT22;14927;51.210;6.838;2022-11-15T16:22:22;19.20;49.10
27492;DHT22;14927;51.210;6.838;2022-11-15T16:25:07;19.20;49.20
27492;DHT22;14927;51.210;6.838;2022-11-15T16:27:52;19.20;49.30
27492;DHT22;14927;51.210;6.838;2022-11-15T16:30:37;19.10;49.40
27492;DHT22;14927;51.210;6.838;2022-11-15T16:33:21;19.10;49.50
27492;DHT22;14927;51.210;6.838;2022-11-15T16:36:20;19.10;49.60
27492;DHT22;14927;51.210;6.838;2022-11-15T16:39:06;19.10;49.80
27492;DHT22;14927;51.210;6.838;2022-11-15T16:41:52;19.00;49.70
27492;DHT22;14927;51.210;6.838;2022-11-15T16:44:37;19.00;49.80
27492;DHT22;14927;51.210;6.838;2022-11-15T16:47:21;18.90;49.90
27492;DHT22;14927;51.210;6.838;2022-11-15T16:50:23;18.90;50.00
27492;DHT22;14927;51.210;6.838;2022-11-15T16:53:09;18.90;50.20
27492;DHT22;14927;51.210;6.838;2022-11-15T16:55:54;18.90;50.30
27492;DHT22;14927;51.210;6.838;2022-11-15T16:58:39;18.80;50.40
27492;DHT22;14927;51.210;6.838;2022-11-15T17:01:26;18.80;50.50
27492;DHT22;14927;51.210;6.838;2022-11-15T17:04:12;18.70;50.60
27492;DHT22;14927;51.210;6.838;2022-11-15T17:06:57;18.70;50.70
27492;DHT22;14927;51.210;6.838;2022-11-15T17:09:42;18.70;50.90
27492;DHT22;14927;51.210;6.838;2022-11-15T17:12:33;18.70;50.90
27492;DHT22;14927;51.210;6.838;2022-11-15T17:15:18;18.70;51.10
27492;DHT22;14927;51.210;6.838;2022-11-15T17:18:02;18.60;51.10
27492;DHT22;14927;51.210;6.838;2022-11-15T17:20:52;18.60;51.20
27492;DHT22;14927;51.210;6.838;2022-11-15T17:23:37;18.60;51.30
27492;DHT22;14927;51.210;6.838;2022-11-15T17:26:22;18.60;51.40
27492;DHT22;14927;51.210;6.838;2022-11-15T17:29:06;18.60;51.40
27492;DHT22;14927;51.210;6.838;2022-11-15T17:31:51;18.50;51.50
27492;DHT22;14927;51.210;6.838;2022-11-15T17:34:35;18.60;51.60
27492;DHT22;14927;51.210;6.838;2022-11-15T17:37:20;18.50;51.60
27492;DHT22;14927;51.210;6.838;2022-11-15T17:40:05;18.50;51.70
27492;DHT22;14927;51.210;6.838;2022-11-15T17:42:50;18.50;51.70
27492;DHT22;14927;51.210;6.838;2022-11-15T17:45:40;18.50;51.80
27492;DHT22;14927;51.210;6.838;2022-11-15T17:48:25;18.50;51.90
27492;DHT22;14927;51.210;6.838;2022-11-15T17:51:12;18.50;51.90
27492;DHT22;14927;51.210;6.838;2022-11-15T17:53:58;18.50;51.90
27492;DHT22;14927;51.210;6.838;2022-11-15T17:56:42;18.50;52.00
27492;DHT22;14927;51.210;6.838;2022-11-15T17:59:27;18.50;52.10
27492;DHT22;14927;51.210;6.838;2022-11-15T18:02:12;18.50;52.20
27492;DHT22;14927;51.210;6.838;2022-11-15T18:04:56;18.50;52.30
27492;DHT22;14927;51.210;6.838;2022-11-15T18:07:41;18.50;52.50
27492;DHT22;14927;51.210;6.838;2022-11-15T18:10:25;18.40;52.60
27492;DHT22;14927;51.210;6.838;2022-11-15T18:13:10;18.50;52.80
27492;DHT22;14927;51.210;6.838;2022-11-15T18:15:55;18.40;53.00
27492;DHT22;14927;51.210;6.838;2022-11-15T18:18:40;18.40;53.10
27492;DHT22;14927;51.210;6.838;2022-11-15T18:21:29;18.40;53.30
27492;DHT22;14927;51.210;6.838;2022-11-15T18:24:16;18.40;53.60
27492;DHT22;14927;51.210;6.838;2022-11-15T18:27:03;18.40;53.80
27492;DHT22;14927;51.210;6.838;2022-11-15T18:29:48;18.40;54.10
27492;DHT22;14927;51.210;6.838;2022-11-15T18:32:33;18.30;54.30
27492;DHT22;14927;51.210;6.838;2022-11-15T18:35:18;18.30;54.60
27492;DHT22;14927;51.210;6.838;2022-11-15T18:38:02;18.30;54.90
27492;DHT22;14927;51.210;6.838;2022-11-15T18:40:47;18.30;55.20
27492;DHT22;14927;51.210;6.838;2022-11-15T18:43:32;18.30;55.60
27492;DHT22;14927;51.210;6.838;2022-11-15T18:46:19;18.20;55.90
27492;DHT22;14927;51.210;6.838;2022-11-15T18:49:05;18.20;56.30
27492;DHT22;14927;51.210;6.838;2022-11-15T18:51:52;18.20;56.50
27492;DHT22;14927;51.210;6.838;2022-11-15T18:54:37;18.20;56.80
27492;DHT22;14927;51.210;6.838;2022-11-15T18:57:22;18.10;57.10
27492;DHT22;14927;51.210;6.838;2022-11-15T19:00:07;18.10;57.30
27492;DHT22;14927;51.210;6.838;2022-11-15T19:02:55;18.10;57.60
27492;DHT22;14927;51.210;6.838;2022-11-15T19:05:39;18.10;58.20
27492;DHT22;14927;51.210;6.838;2022-11-15T19:08:24;18.00;58.30
27492;DHT22;14927;51.210;6.838;2022-11-15T19:11:17;18.00;58.60
27492;DHT22;14927;51.210;6.838;2022-11-15T19:14:08;17.90;59.00
27492;DHT22;14927;51.210;6.838;2022-11-15T19:16:54;17.90;58.90
27492;DHT22;14927;51.210;6.838;2022-11-15T19:19:39;17.90;59.30
27492;DHT22;14927;51.210;6.838;2022-11-15T19:22:23;17.80;59.30
27492;DHT22;14927;51.210;6.838;2022-11-15T19:25:08;17.90;59.70
27492;DHT22;14927;51.210;6.838;2022-11-15T19:27:53;17.80;59.90
27492;DHT22;14927;51.210;6.838;2022-11-15T19:30:38;17.80;60.20